Nearby METAR Reports

 

KSJC - San Jose, California, USA
Distance from station: NE 9mi, 14km
Updated: Sat, 01-Nov-2014 4:53am PDT
Clear
Clear
 Wind from SE
Wind: SE 3 mph , 6 km/h
Temperature: 52°F , 11°C
Dew Point: 50°F , 10°C
Humidity: 94%
Barometer: 29.78 inHg , 1008.5 hPa
Clouds: Clear
Visibility: 10 miles , 16 km
2014/11/01 11:53 KSJC 011153Z AUTO 13003KT 10SM CLR 11/10 A2978 RMK AO2 SLP084 70051 T01060100 10128 20106 50004
KNUQ - Moffett Nas/Mtn, California, USA
Distance from station: N 9mi, 14km
Updated: Sat, 01-Nov-2014 4:56am PDT
Few Clouds
Few Clouds
 Wind from calm
Wind: Calm
Temperature: 54°F , 12°C
Dew Point: 52°F , 11°C
Humidity: 94%
Barometer: 29.79 inHg , 1008.8 hPa
Clouds: Few Clouds
Visibility: 10 miles , 16 km
Cloud details: Few Clouds 3900 ft
2014/11/01 11:56 KNUQ 011156Z AUTO 00000KT 10SM FEW039 12/11 A2979 RMK AO2 SLP089 70014 T01170106 10139 20111 51005 TSNO
 
KPAO - Palo Alto, California, USA
Distance from station: NNW 14mi, 23km
Updated: Fri, 31-Oct-2014 8:47pm PDT
NOT Current
Mostly cloudy
Mostly cloudy
 Wind from varies
Wind: varies 6 mph , 9 km/h
Temperature: 57°F , 14°C
Dew Point: 55°F , 13°C
Humidity: 94%
Barometer: 29.78 inHg , 1008.5 hPa
Clouds: Mostly cloudy
Visibility: 10 miles , 16 km
Cloud details: Partly cloudy 3000 ft
Mostly cloudy 10000 ft
2014/11/01 03:47 KPAO 010347Z VRB05KT 10SM SCT030 BKN100 14/13 A2978 RMK LAST
KRHV - San Jose/Reid, California, USA
Distance from station: ENE 12mi, 19km
Updated: Fri, 31-Oct-2014 9:55pm PDT
NOT Current
Mostly cloudy
Mostly cloudy
 Wind from calm
Wind: Calm
Temperature: 61°F , 16°C
Dew Point: 57°F , 14°C
Humidity: 88%
Barometer: 29.79 inHg , 1008.8 hPa
Clouds: Mostly cloudy
Visibility: 10 miles , 16 km
Cloud details: Few Clouds 2000 ft
Mostly cloudy 8000 ft
2014/11/01 04:55 KRHV 010455Z 00000KT 10SM FEW020 BKN080 16/14 A2979 RMK LAST
 
KOAK - Oakland, California, USA
Distance from station: NNW 31mi, 50km
Updated: Sat, 01-Nov-2014 4:53am PDT
Partly cloudy
Partly cloudy
 Wind from W
Wind: W 13 mph , 20 km/h
Temperature: 57°F , 14°C
Dew Point: 48°F , 9°C
Humidity: 72%
Barometer: 29.77 inHg , 1008.1 hPa
Clouds: Partly cloudy
Visibility: 10 miles , 16 km
Cloud details: Few Clouds 2000 ft
Partly cloudy 10000 ft
2014/11/01 11:53 KOAK 011153Z 28011KT 10SM FEW020 SCT100 14/09 A2977 RMK AO2 SLP080 70032 T01390094 10150 20139 51006
KSQL - San Carlos Airpo, California, USA
Distance from station: NW 21mi, 34km
Updated: Sat, 01-Nov-2014 4:50am PDT
Mostly cloudy
Mostly cloudy
 Wind from SSW
Wind: SSW 3 mph , 6 km/h
Temperature: 55°F , 13°C
Dew Point: 50°F , 10°C
Humidity: 82%
Barometer: 29.79 inHg , 1008.8 hPa
Clouds: Mostly cloudy
Visibility: 10 miles , 16 km
Cloud details: Few Clouds 5000 ft
Few Clouds 9000 ft
Mostly cloudy 11000 ft
2014/11/01 11:50 KSQL 011150Z AUTO 21003KT 10SM FEW050 FEW090 BKN110 13/10 A2979 RMK AO2
 
KSFO - San Francisco, California, USA
Distance from station: NW 30mi, 49km
Updated: Sat, 01-Nov-2014 4:56am PDT
Few Clouds
Few Clouds
 Wind from W
Wind: W 5 mph , 7 km/h
Temperature: 55°F , 13°C
Dew Point: 50°F , 10°C
Humidity: 82%
Barometer: 29.78 inHg , 1008.5 hPa
Clouds: Few Clouds
Visibility: 10 miles , 16 km
Cloud details: Few Clouds 2900 ft
2014/11/01 11:56 KSFO 011156Z 27004KT 10SM FEW029 13/10 A2978 RMK AO2 SLP083 70018 T01330100 10156 20133 51008 $
KE16 - San Martin, California, USA
Distance from station: ESE 27mi, 43km
Updated: Sat, 01-Nov-2014 4:55am PDT
Overcast
Overcast
 Wind from SE
Wind: SE 3 mph , 6 km/h
Temperature: 54°F , 12°C
Dew Point: 50°F , 10°C
Humidity: 88%
Barometer: 29.81 inHg , 1009.5 hPa
Clouds: Overcast
Visibility: 10 miles , 16 km
Cloud details: Partly cloudy 3300 ft
Mostly cloudy 3900 ft
Overcast 5000 ft
2014/11/01 11:55 KE16 011155Z AUTO 13003KT 10SM SCT033 BKN039 OVC050 12/10 A2981 RMK AO2
 
KWVI - Watsonville, California, USA
Distance from station: SSE 27mi, 44km
Updated: Sat, 01-Nov-2014 4:53am PDT
Overcast
Overcast
 Wind from ESE
Wind: ESE 5 mph , 7 km/h
Temperature: 55°F , 13°C
Barometer: 29.81 inHg , 1009.5 hPa
Clouds: Overcast
Visibility: 10 miles , 16 km
Cloud details: Partly cloudy 1200 ft
Mostly cloudy 2500 ft
Overcast 6000 ft
2014/11/01 11:53 KWVI 011153Z AUTO 11004KT 10SM SCT012 BKN025 OVC060 13/ A2981 RMK AO2 RAE49 SLP092 P0002 60003 70071 T0128 10139 20128 51003 $
KHAF - Half Moon Bay, California, USA
Distance from station: WNW 31mi, 50km
Updated: Sat, 01-Nov-2014 4:55am PDT
Overcast
Overcast
 Wind from calm
Wind: Calm
Temperature: 50°F , 10°C
Dew Point: 48°F , 9°C
Humidity: 94%
Barometer: 29.79 inHg , 1008.8 hPa
Clouds: Overcast
Visibility: 8 miles , 13 km
Cloud details: Overcast 300 ft
2014/11/01 11:55 KHAF 011155Z AUTO 00000KT 8SM OVC003 10/09 A2979 RMK AO2
 
KHWD - Hayward, California, USA
Distance from station: N 28mi, 44km
Updated: Sat, 01-Nov-2014 4:54am PDT
Mostly cloudy
Mostly cloudy
 Wind from W
Wind: W 3 mph , 6 km/h
Temperature: 57°F , 14°C
Dew Point: 52°F , 11°C
Humidity: 82%
Barometer: 29.77 inHg , 1008.1 hPa
Clouds: Mostly cloudy
Visibility: 10 miles , 16 km
Cloud details: Few Clouds 2600 ft
Partly cloudy 6500 ft
Mostly cloudy 11000 ft
2014/11/01 11:54 KHWD 011154Z AUTO 26003KT 10SM FEW026 SCT065 BKN110 14/11 A2977 RMK AO2 SLP090 70020 T01440111 10156 20133 53002 $
KLVK - Livermore, California, USA
Distance from station: NNE 31mi, 51km
Updated: Sat, 01-Nov-2014 4:53am PDT
Clear
Clear
 Wind from SW
Wind: SW 8 mph , 13 km/h
Temperature: 54°F , 12°C
Dew Point: 50°F , 10°C
Humidity: 88%
Barometer: 29.76 inHg , 1007.8 hPa
Clouds: Clear
Visibility: 10 miles , 16 km
2014/11/01 11:53 KLVK 011153Z AUTO 22007KT 10SM CLR 12/10 A2976 RMK AO2 SLP076 70010 T01220100 10133 20122 50005